Time;durP1;ratioP1;P1;durP2;ratioP2;P2;SDS_P1;SDS_P2;PMS_P1;PMS_P2;Temp;Humidity;BMP_temperature;BMP_pressure;BME280_temperature;BME280_humidity;BME280_pressure;Samples;Min_cycle;Max_cycle;Signal;HPM_P1;HPM_P2
2022/12/22 03:26:53;;;;;;;;;61.00;47.00;;;;;8.08;61.54;98498.41;6277731;27;96242;-63
2022/12/22 03:29:57;;;;;;;;;61.75;48.00;;;;;7.95;62.10;98495.81;6285220;27;96405;-63
2022/12/22 03:33:00;;;;;;;;;60.20;45.60;;;;;7.94;62.28;98494.16;6289202;27;97799;-63
2022/12/22 03:36:06;;;;;;;;;58.00;45.00;;;;;7.91;62.42;98497.28;6288612;27;96637;-64
2022/12/22 03:39:09;;;;;;;;;58.00;46.00;;;;;7.92;62.48;98504.28;6290355;27;96212;-63
2022/12/22 03:52:13;;;;;;;;;59.25;46.75;;;;;7.90;63.11;98490.28;6280768;27;97799;-63
2022/12/22 03:55:16;;;;;;;;;59.00;46.00;;;;;7.94;63.12;98480.75;6278484;27;96507;-63
2022/12/22 03:58:19;;;;;;;;;58.50;45.25;;;;;7.94;63.20;98499.53;6286313;27;96539;-63
2022/12/22 04:01:23;;;;;;;;;57.60;45.60;;;;;7.94;62.97;98503.03;6290653;27;97613;-63
2022/12/22 04:04:27;;;;;;;;;58.00;46.00;;;;;7.93;63.30;98495.19;6286352;27;97747;-63
2022/12/22 04:07:31;;;;;;;;;58.60;46.00;;;;;7.93;63.38;98487.16;6289250;27;96261;-63
2022/12/22 04:13:54;;;;;;;;;53.40;42.00;;;;;7.96;63.54;98481.38;6257263;27;97079;-63
2022/12/22 04:16:58;;;;;;;;;56.60;43.80;;;;;8.01;63.49;98487.75;6286741;27;96866;-64
2022/12/22 04:20:01;;;;;;;;;55.00;44.00;;;;;7.98;63.95;98473.91;6281356;27;96442;-63
2022/12/22 04:23:06;;;;;;;;;52.00;42.00;;;;;7.98;63.87;98471.22;6286295;27;96259;-63
2022/12/22 04:26:09;;;;;;;;;50.00;42.00;;;;;8.03;63.85;98466.84;6285950;27;97198;-63
2022/12/22 04:29:13;;;;;;;;;53.50;43.25;;;;;8.14;63.43;98468.88;6288458;27;96764;-64
2022/12/22 04:32:16;;;;;;;;;50.00;39.00;;;;;8.15;63.62;98470.50;6284470;27;96498;-64
2022/12/22 04:35:20;;;;;;;;;50.80;42.40;;;;;8.14;63.76;98468.03;6287218;27;96755;-63
2022/12/22 04:38:24;;;;;;;;;50.00;40.20;;;;;8.13;63.58;98467.22;6281778;27;96456;-64
2022/12/22 04:41:28;;;;;;;;;49.00;40.00;;;;;8.12;63.68;98462.88;6290024;27;96917;-64
2022/12/22 04:44:31;;;;;;;;;54.25;42.25;;;;;8.15;63.50;98459.78;6292668;27;97498;-64
2022/12/22 04:47:34;;;;;;;;;50.00;40.00;;;;;8.18;63.38;98458.50;6286731;27;96451;-64
2022/12/22 04:50:38;;;;;;;;;52.00;41.00;;;;;8.14;63.38;98452.75;6287158;27;97543;-64
2022/12/22 04:53:42;;;;;;;;;52.20;40.80;;;;;8.20;63.36;98443.00;6286592;27;96724;-63
2022/12/22 04:56:46;;;;;;;;;51.00;42.00;;;;;8.21;63.16;98433.88;6285852;27;96920;-63
2022/12/22 04:59:49;;;;;;;;;53.40;41.00;;;;;8.16;63.39;98428.38;6283755;27;97139;-64
2022/12/22 05:02:53;;;;;;;;;48.50;39.00;;;;;8.14;63.42;98433.97;6283388;27;96328;-62
2022/12/22 05:05:56;;;;;;;;;49.20;38.60;;;;;8.17;63.11;98427.31;6284871;27;96301;-64
2022/12/22 05:09:01;;;;;;;;;48.40;38.00;;;;;8.20;63.19;98434.94;6286104;27;96950;-62
2022/12/22 05:12:53;;;;;;;;;49.50;40.00;;;;;8.21;63.03;98434.72;6282077;27;97463;-62
2022/12/22 05:15:30;;;;;;;;;55.00;42.25;;;;;8.26;62.66;98431.38;6285725;27;96380;-63
2022/12/22 05:18:35;;;;;;;;;54.00;42.20;;;;;8.25;62.57;98429.75;6282902;27;97437;-63
2022/12/22 05:21:38;;;;;;;;;50.00;41.00;;;;;8.18;62.78;98423.59;6279884;27;97173;-62
2022/12/22 05:24:44;;;;;;;;;53.00;42.00;;;;;8.16;62.83;98421.13;6280441;27;96984;-63
2022/12/22 05:27:49;;;;;;;;;50.25;41.25;;;;;8.16;62.88;98431.06;6283170;27;96362;-62
2022/12/22 05:30:53;;;;;;;;;49.60;39.40;;;;;8.15;63.09;98422.19;6281308;27;96915;-62
2022/12/22 05:33:56;;;;;;;;;48.50;39.00;;;;;8.22;62.87;98422.13;6281790;27;97167;-62
2022/12/22 05:37:00;;;;;;;;;50.60;40.00;;;;;8.32;62.94;98425.16;6296586;27;97068;-63
2022/12/22 05:40:06;;;;;;;;;49.00;39.00;;;;;8.37;62.67;98428.03;6280682;27;96439;-63
2022/12/22 05:43:10;;;;;;;;;49.67;39.67;;;;;8.36;62.67;98426.38;6280483;27;96451;-64
2022/12/22 05:46:13;;;;;;;;;48.40;38.40;;;;;8.44;62.31;98414.56;6279935;27;98098;-62
2022/12/22 05:49:16;;;;;;;;;49.25;40.00;;;;;8.41;62.29;98407.75;6272002;27;97158;-63
2022/12/22 05:52:20;;;;;;;;;53.00;42.00;;;;;8.44;62.04;98411.88;6277639;27;96810;-62
2022/12/22 05:55:24;;;;;;;;;53.00;42.00;;;;;8.44;62.03;98406.50;6273954;27;96801;-63
2022/12/22 05:58:28;;;;;;;;;53.80;43.00;;;;;8.43;61.67;98402.16;6268273;27;97428;-63
2022/12/22 06:01:31;;;;;;;;;55.00;42.00;;;;;8.38;61.58;98392.06;6265413;27;96376;-63
2022/12/22 06:04:35;;;;;;;;;53.80;42.00;;;;;8.46;61.52;98407.06;6265929;27;97151;-62
2022/12/22 06:07:39;;;;;;;;;52.40;39.00;;;;;8.46;61.50;98415.13;6277239;27;96964;-62
2022/12/22 06:10:44;;;;;;;;;51.00;39.20;;;;;8.46;61.37;98407.91;6277757;27;98436;-62
2022/12/22 06:13:47;;;;;;;;;52.00;41.00;;;;;8.48;61.46;98408.53;6264360;27;96783;-62
2022/12/22 06:16:53;;;;;;;;;50.00;39.00;;;;;8.49;61.22;98415.53;6273672;27;96342;-62
2022/12/22 06:19:56;;;;;;;;;47.25;38.50;;;;;8.49;60.98;98420.91;6263488;27;97031;-63
2022/12/22 06:22:59;;;;;;;;;46.20;38.80;;;;;8.50;60.88;98427.91;6271022;27;96607;-63
2022/12/22 06:26:04;;;;;;;;;50.20;39.20;;;;;8.51;60.83;98428.72;6286904;27;96653;-64
2022/12/22 06:29:07;;;;;;;;;49.50;39.50;;;;;8.51;60.91;98428.72;6289152;27;96405;-63
2022/12/22 06:32:11;;;;;;;;;49.60;39.00;;;;;8.52;61.19;98433.06;6290121;27;96832;-63
2022/12/22 06:35:14;;;;;;;;;52.40;39.40;;;;;8.50;61.33;98427.91;6282774;27;96323;-63
2022/12/22 06:38:18;;;;;;;;;46.75;39.00;;;;;8.53;61.33;98434.72;6290965;27;96303;-63
2022/12/22 06:44:40;;;;;;;;;49.60;41.00;;;;;8.57;61.10;98428.69;6289783;27;96845;-63
2022/12/22 06:47:43;;;;;;;;;49.50;38.75;;;;;8.54;61.13;98434.50;6285934;27;96532;-63
2022/12/22 06:50:47;;;;;;;;;49.20;38.60;;;;;8.59;61.17;98439.22;6290883;27;96885;-63
2022/12/22 06:53:50;;;;;;;;;52.00;42.00;;;;;8.53;61.24;98438.22;6290949;27;96377;-63
2022/12/22 06:56:55;;;;;;;;;51.00;41.00;;;;;8.56;61.08;98426.22;6300164;27;96953;-63
2022/12/22 06:59:59;;;;;;;;;52.80;42.00;;;;;8.52;61.18;98415.09;6292957;27;96334;-64
2022/12/22 07:03:02;;;;;;;;;52.00;42.00;;;;;8.43;61.37;98413.72;6290200;27;96336;-64
2022/12/22 07:06:07;;;;;;;;;57.60;44.00;;;;;8.44;61.45;98420.75;6290019;27;96281;-64
2022/12/22 07:09:11;;;;;;;;;53.80;42.00;;;;;8.38;61.42;98408.19;6290348;27;96785;-64
2022/12/22 07:12:15;;;;;;;;;50.40;40.40;;;;;8.56;61.13;98420.84;6290126;27;96319;-64
2022/12/22 07:15:19;;;;;;;;;53.00;41.25;;;;;8.48;61.29;98400.47;6293338;27;96708;-64
2022/12/22 07:18:22;;;;;;;;;52.00;40.25;;;;;8.56;61.22;98410.91;6294762;27;96387;-64
2022/12/22 07:21:26;;;;;;;;;50.00;41.25;;;;;8.57;61.09;98409.88;6287453;27;97066;-64
2022/12/22 07:24:29;;;;;;;;;52.80;42.00;;;;;8.69;60.94;98418.88;6291528;27;96458;-63
2022/12/22 07:27:34;;;;;;;;;50.00;40.50;;;;;8.74;60.90;98417.38;6291721;27;96462;-64
2022/12/22 07:30:37;;;;;;;;;50.33;39.67;;;;;8.60;60.92;98401.38;6291258;27;97423;-64
2022/12/22 07:33:40;;;;;;;;;50.75;41.25;;;;;8.67;61.13;98418.25;6287465;27;96340;-64
2022/12/22 07:36:44;;;;;;;;;52.20;41.00;;;;;8.67;61.12;98407.53;6287705;27;96303;-64
2022/12/22 07:39:47;;;;;;;;;53.00;40.75;;;;;8.68;61.14;98397.59;6284625;27;96222;-62
2022/12/22 07:42:56;;;;;;;;;53.00;42.60;;;;;8.63;61.28;98394.75;6291179;27;96432;-63
2022/12/22 07:45:59;;;;;;;;;50.80;40.40;;;;;8.64;61.47;98388.34;6287791;27;96234;-64
2022/12/22 07:52:25;;;;;;;;;53.00;41.00;;;;;8.77;61.50;98384.69;6287357;27;96492;-63
2022/12/22 07:55:31;;;;;;;;;52.60;41.40;;;;;8.84;61.15;98380.06;6286465;27;96540;-64
2022/12/22 07:58:36;;;;;;;;;50.60;40.60;;;;;8.84;60.89;98366.63;6284664;27;96881;-63
2022/12/22 08:01:40;;;;;;;;;53.00;41.00;;;;;9.03;60.62;98379.03;6286931;27;97478;-64
2022/12/22 08:04:44;;;;;;;;;51.40;42.00;;;;;9.09;60.23;98373.56;6284939;27;97278;-63
2022/12/22 08:07:48;;;;;;;;;52.20;41.40;;;;;9.16;60.26;98370.81;6287229;27;96377;-64
2022/12/22 08:10:52;;;;;;;;;52.80;41.00;;;;;9.24;60.09;98366.97;6292500;27;97646;-64
2022/12/22 08:13:57;;;;;;;;;50.00;40.00;;;;;9.32;59.74;98367.50;6290935;27;96574;-63
2022/12/22 08:17:04;;;;;;;;;53.00;42.00;;;;;9.42;59.37;98372.34;6289635;27;97233;-64
2022/12/22 08:20:08;;;;;;;;;48.00;38.00;;;;;9.53;59.37;98364.31;6287091;27;96490;-64
2022/12/22 08:23:12;;;;;;;;;51.40;41.00;;;;;9.73;58.27;98361.34;6286615;27;96311;-64
2022/12/22 08:26:20;;;;;;;;;51.80;41.00;;;;;9.95;58.33;98359.81;6291062;27;97512;-64
2022/12/22 08:29:31;;;;;;;;;50.40;41.00;;;;;10.25;57.45;98350.88;6289770;27;96551;-64
2022/12/22 08:32:35;;;;;;;;;49.60;40.80;;;;;10.61;56.82;98344.41;6302649;27;97660;-63
2022/12/22 08:35:38;;;;;;;;;48.60;39.00;;;;;11.29;54.85;98353.47;6281019;27;96937;-64
2022/12/22 08:38:43;;;;;;;;;55.00;42.00;;;;;11.81;53.25;98356.13;6287168;27;96586;-63
2022/12/22 08:41:50;;;;;;;;;45.00;38.00;;;;;12.13;52.56;98367.22;6287731;27;96253;-65
2022/12/22 08:44:56;;;;;;;;;45.00;37.00;;;;;12.33;51.52;98364.03;6287641;27;96315;-65
2022/12/22 08:48:00;;;;;;;;;48.00;37.00;;;;;12.38;51.32;98356.81;6287195;27;97202;-64
2022/12/22 08:51:03;;;;;;;;;47.00;38.60;;;;;12.62;50.57;98360.16;6268908;27;99164;-64
2022/12/22 08:54:07;;;;;;;;;53.60;41.00;;;;;12.78;50.58;98351.22;6290039;27;96429;-64
2022/12/22 08:57:10;;;;;;;;;53.00;40.50;;;;;12.92;50.40;98343.56;6289269;27;96336;-64
2022/12/22 09:00:16;;;;;;;;;56.00;43.00;;;;;13.06;49.50;98338.59;6286576;27;96485;-64
2022/12/22 09:03:19;;;;;;;;;55.00;42.00;;;;;13.20;48.86;98334.47;6287913;27;96693;-65
2022/12/22 09:06:24;;;;;;;;;49.00;40.50;;;;;13.28;48.84;98326.75;6284378;27;96305;-64
2022/12/22 09:09:32;;;;;;;;;49.00;39.00;;;;;13.21;48.63;98322.59;6287092;27;96690;-64
2022/12/22 09:12:35;;;;;;;;;48.00;37.50;;;;;13.06;48.82;98311.53;6289018;27;96304;-60
2022/12/22 09:15:40;;;;;;;;;47.50;38.00;;;;;12.92;49.07;98311.91;6291298;27;96475;-59
2022/12/22 09:18:44;;;;;;;;;50.00;39.00;;;;;12.83;49.35;98302.59;6284540;27;97518;-60
2022/12/22 09:21:47;;;;;;;;;45.50;36.00;;;;;12.72;49.37;98300.81;6284873;27;96282;-61
2022/12/22 09:24:50;;;;;;;;;47.60;37.20;;;;;12.71;49.55;98314.59;6288423;27;96916;-60
2022/12/22 09:27:59;;;;;;;;;47.00;38.67;;;;;12.61;49.73;98301.72;6289746;27;96813;-59
2022/12/22 09:31:07;;;;;;;;;45.80;38.00;;;;;12.57;50.09;98295.19;6293153;27;96531;-60
2022/12/22 09:34:11;;;;;;;;;47.40;38.40;;;;;12.38;50.39;98293.84;6287692;27;96343;-59
2022/12/22 09:37:20;;;;;;;;;48.00;38.00;;;;;12.38;50.85;98285.72;6287423;27;96288;-59
2022/12/22 09:40:26;;;;;;;;;50.20;40.20;;;;;12.40;50.86;98278.19;6285433;27;96541;-59
2022/12/22 09:43:30;;;;;;;;;49.40;40.00;;;;;12.46;51.09;98266.41;6289069;27;96671;-59
2022/12/22 09:46:37;;;;;;;;;48.80;38.80;;;;;12.64;51.01;98246.34;6287037;27;96430;-58
2022/12/22 09:49:40;;;;;;;;;51.40;41.40;;;;;12.93;50.30;98253.22;6288615;27;97548;-59
2022/12/22 09:52:48;;;;;;;;;49.00;39.00;;;;;13.12;50.29;98241.03;6289067;27;96703;-58
2022/12/22 09:55:52;;;;;;;;;50.40;40.00;;;;;13.22;49.85;98233.03;6293358;27;96470;-58
2022/12/22 09:58:55;;;;;;;;;49.80;39.60;;;;;13.34;49.59;98246.41;6292207;27;96288;-58
2022/12/22 10:02:15;;;;;;;;;51.80;40.00;;;;;13.72;49.42;98246.25;6288025;27;96378;-60
2022/12/22 10:05:27;;;;;;;;;44.80;36.00;;;;;15.11;46.31;98237.63;6287988;27;96341;-59
2022/12/22 10:08:35;;;;;;;;;48.60;36.00;;;;;17.38;42.59;98229.53;6287345;27;97651;-59
2022/12/22 10:11:38;;;;;;;;;45.00;35.50;;;;;19.32;38.21;98230.94;6290350;27;96486;-60
2022/12/22 10:14:44;;;;;;;;;44.00;35.00;;;;;19.66;36.55;98219.84;6288365;27;96678;-59
2022/12/22 10:17:50;;;;;;;;;40.00;33.00;;;;;19.54;36.91;98217.56;6285151;27;96702;-60
2022/12/22 10:21:09;;;;;;;;;36.80;33.00;;;;;19.16;37.15;98221.31;6289488;27;96251;-59
2022/12/22 10:24:18;;;;;;;;;36.40;32.00;;;;;18.81;37.03;98208.94;6305460;27;96353;-58
2022/12/22 10:27:24;;;;;;;;;35.40;32.00;;;;;18.56;37.87;98197.22;6287509;27;97594;-60
2022/12/22 10:30:34;;;;;;;;;40.00;33.00;;;;;18.23;38.69;98189.09;6289826;27;96411;-59
2022/12/22 10:33:40;;;;;;;;;38.00;33.00;;;;;17.91;38.91;98184.19;6306073;27;96422;-58
2022/12/22 10:36:51;;;;;;;;;39.00;33.00;;;;;17.68;39.58;98186.56;6295062;27;96454;-60
2022/12/22 10:39:55;;;;;;;;;45.00;36.80;;;;;17.57;39.73;98176.78;6289787;27;96364;-59
2022/12/22 10:43:01;;;;;;;;;47.00;38.00;;;;;17.42;40.43;98178.81;6289555;27;96690;-59
2022/12/22 10:46:05;;;;;;;;;46.50;37.50;;;;;17.41;40.10;98174.44;6290012;27;98600;-59
2022/12/22 10:49:15;;;;;;;;;43.50;36.00;;;;;17.66;39.37;98174.31;6289112;27;96879;-59
2022/12/22 10:52:22;;;;;;;;;46.40;38.00;;;;;18.06;39.52;98178.59;6289539;27;96350;-59
2022/12/22 10:55:34;;;;;;;;;45.00;36.00;;;;;18.80;38.02;98158.97;6290102;27;96503;-58
2022/12/22 10:58:49;;;;;;;;;45.00;36.50;;;;;19.93;35.88;98162.50;6289680;27;96449;-58
2022/12/22 11:01:52;;;;;;;;;45.40;36.00;;;;;21.08;34.12;98155.06;6289899;27;97374;-60
2022/12/22 11:05:02;;;;;;;;;50.00;41.00;;;;;22.31;32.34;98149.09;6277575;27;96595;-60
2022/12/22 11:08:16;;;;;;;;;54.50;42.25;;;;;23.40;30.07;98134.38;6287730;27;96412;-59
2022/12/22 11:11:38;;;;;;;;;52.80;43.60;;;;;24.73;28.71;98126.78;6290983;27;96397;-61
2022/12/22 11:14:54;;;;;;;;;52.00;41.00;;;;;25.91;27.08;98134.88;6293671;27;96394;-59
2022/12/22 11:18:05;;;;;;;;;55.00;43.60;;;;;27.02;25.11;98125.31;6303396;27;96410;-61
2022/12/22 11:21:16;;;;;;;;;50.60;41.60;;;;;27.67;24.37;98115.00;6298376;27;96565;-59
2022/12/22 11:24:38;;;;;;;;;52.00;43.00;;;;;28.33;23.07;98129.13;6291047;27;96290;-59
2022/12/22 11:27:51;;;;;;;;;49.60;40.60;;;;;28.39;22.67;98124.91;6292009;27;96645;-61
2022/12/22 11:31:17;;;;;;;;;52.00;41.60;;;;;28.62;22.61;98113.19;6292281;27;96230;-59
2022/12/22 11:34:33;;;;;;;;;49.60;41.40;;;;;28.89;22.47;98117.03;6287793;27;97155;-59
2022/12/22 11:37:48;;;;;;;;;48.75;39.25;;;;;29.10;21.79;98107.22;6290676;27;96782;-59
2022/12/22 11:41:00;;;;;;;;;51.20;40.00;;;;;29.43;21.97;98104.00;6290919;27;97000;-60
2022/12/22 11:44:22;;;;;;;;;48.00;39.00;;;;;29.62;21.57;98104.00;6291113;27;96387;-61
2022/12/22 11:47:35;;;;;;;;;47.00;39.00;;;;;29.83;21.36;98097.28;6290088;27;96900;-60
2022/12/22 11:50:42;;;;;;;;;48.75;40.00;;;;;30.08;21.16;98102.19;6289207;27;96258;-60
2022/12/22 11:54:28;;;;;;;;;44.60;37.20;;;;;30.23;20.99;98102.44;6289574;27;96933;-60
2022/12/22 11:57:38;;;;;;;;;46.00;38.00;;;;;30.06;20.98;98093.41;6292118;27;96282;-60
2022/12/22 12:00:48;;;;;;;;;50.00;40.20;;;;;28.76;21.82;98091.38;6293854;27;97008;-62
2022/12/22 12:04:42;;;;;;;;;49.50;40.50;;;;;27.51;23.34;98087.25;6290036;27;96420;-61
2022/12/22 12:07:50;;;;;;;;;53.00;41.00;;;;;27.60;23.57;98080.75;6288095;27;96467;-61
2022/12/22 12:11:03;;;;;;;;;52.00;41.00;;;;;26.95;23.70;98077.22;6288707;27;96457;-61
2022/12/22 12:14:22;;;;;;;;;52.60;41.00;;;;;25.63;25.25;98072.00;6288368;27;96584;-61
2022/12/22 12:17:39;;;;;;;;;50.00;40.60;;;;;23.98;26.34;98080.75;6289117;27;96376;-61
2022/12/22 12:20:53;;;;;;;;;53.40;43.00;;;;;22.47;28.16;98051.44;6288883;27;96486;-60
2022/12/22 12:24:28;;;;;;;;;56.00;44.75;;;;;21.26;30.34;98062.88;6288546;27;96602;-59
2022/12/22 12:27:53;;;;;;;;;58.40;46.00;;;;;20.17;32.12;98063.84;6283700;27;96337;-60
2022/12/22 12:30:59;;;;;;;;;57.00;46.00;;;;;19.36;33.59;98063.34;6289799;27;96203;-61
2022/12/22 12:34:03;;;;;;;;;60.00;46.00;;;;;18.62;34.72;98056.00;6286753;27;96610;-62
2022/12/22 12:37:15;;;;;;;;;55.40;44.00;;;;;18.15;35.64;98054.09;6289245;27;96921;-63
2022/12/22 12:40:35;;;;;;;;;57.00;45.00;;;;;17.62;36.84;98032.34;6287661;27;96802;-63
2022/12/22 12:43:41;;;;;;;;;58.75;46.00;;;;;17.12;37.73;98036.28;6288354;27;96834;-61
2022/12/22 12:47:05;;;;;;;;;60.80;46.60;;;;;16.63;38.82;98036.34;6286352;27;97035;-62
2022/12/22 12:50:31;;;;;;;;;56.60;45.00;;;;;16.16;39.91;98038.75;6287842;27;96588;-61
2022/12/22 12:53:35;;;;;;;;;57.40;46.00;;;;;15.78;40.75;98037.50;6288331;27;96357;-61
2022/12/22 12:56:54;;;;;;;;;60.40;48.00;;;;;15.38;41.28;98031.03;6289766;27;96762;-62
2022/12/22 13:00:00;;;;;;;;;58.00;46.25;;;;;15.10;41.83;98031.59;6288502;27;97456;-62
2022/12/22 13:03:05;;;;;;;;;56.75;46.00;;;;;14.90;42.16;98034.28;6292989;27;96417;-62
2022/12/22 13:06:30;;;;;;;;;61.25;46.00;;;;;14.77;42.53;98032.09;6292289;27;96349;-61
2022/12/22 13:09:34;;;;;;;;;56.00;44.60;;;;;14.62;42.89;98030.97;6295293;27;96354;-61
2022/12/22 13:12:56;;;;;;;;;59.00;46.00;;;;;14.53;43.86;98024.47;6289541;27;98501;-62
2022/12/22 13:16:25;;;;;;;;;60.00;46.00;;;;;14.48;43.94;98010.06;6293233;27;96865;-62
2022/12/22 13:19:30;;;;;;;;;63.00;48.00;;;;;14.28;44.02;98010.78;6298439;27;96997;-62
2022/12/22 13:22:34;;;;;;;;;57.75;46.75;;;;;14.08;44.65;98008.00;6290535;27;96733;-61
2022/12/22 13:25:45;;;;;;;;;59.60;46.00;;;;;13.87;44.92;98001.72;6292701;27;96596;-61
2022/12/22 13:28:56;;;;;;;;;62.00;48.00;;;;;13.69;44.97;98015.69;6300659;27;96388;-60
2022/12/22 13:32:03;;;;;;;;;61.00;48.00;;;;;13.51;45.77;98006.13;6305191;27;97151;-61
2022/12/22 13:35:17;;;;;;;;;63.00;48.00;;;;;13.33;46.42;98001.97;6294533;27;96293;-62
2022/12/22 13:38:40;;;;;;;;;57.40;46.00;;;;;13.17;46.57;98008.34;6291823;27;97600;-63
2022/12/22 13:41:46;;;;;;;;;60.00;46.00;;;;;13.12;46.83;98010.19;6293304;27;96872;-61
2022/12/22 13:44:50;;;;;;;;;60.00;47.00;;;;;13.05;46.84;98010.34;6300288;27;96361;-61
2022/12/22 13:47:55;;;;;;;;;60.00;45.60;;;;;12.98;47.88;98015.19;6290087;27;96562;-61
2022/12/22 13:51:01;;;;;;;;;54.60;44.00;;;;;12.86;47.71;98022.66;6288159;27;96326;-61
2022/12/22 13:54:14;;;;;;;;;45.00;36.00;;;;;12.98;48.72;98016.00;6288882;27;96420;-61
2022/12/22 13:57:21;;;;;;;;;38.00;33.00;;;;;13.02;48.64;97998.19;6286242;27;96422;-61
2022/12/22 14:00:26;;;;;;;;;47.00;37.40;;;;;13.11;48.35;97997.69;6290272;27;97025;-61
2022/12/22 14:03:31;;;;;;;;;46.60;35.60;;;;;13.08;48.36;98007.16;6285229;27;96476;-61
2022/12/22 14:06:54;;;;;;;;;34.50;30.00;;;;;13.02;49.13;97997.34;6281857;27;97042;-60
2022/12/22 14:09:58;;;;;;;;;33.00;28.50;;;;;13.18;49.14;97999.16;6289323;27;96601;-61
2022/12/22 14:13:07;;;;;;;;;42.60;34.40;;;;;13.21;48.60;97998.63;6287619;27;96391;-61
2022/12/22 14:16:14;;;;;;;;;38.00;33.00;;;;;13.14;49.19;97991.81;6295463;27;96573;-61
2022/12/22 14:19:22;;;;;;;;;30.60;28.80;;;;;13.14;50.31;98002.63;6286989;27;97068;-61
2022/12/22 14:22:29;;;;;;;;;34.00;31.00;;;;;13.15;49.74;98002.34;6286162;27;97264;-61
2022/12/22 14:25:36;;;;;;;;;35.00;32.00;;;;;13.11;49.57;98006.66;6281238;27;96660;-61
2022/12/22 14:28:49;;;;;;;;;36.40;32.00;;;;;13.02;49.85;98000.06;6283269;27;96999;-61
2022/12/22 14:31:54;;;;;;;;;35.00;32.00;;;;;12.86;49.88;98001.00;6284828;27;97247;-60
2022/12/22 14:34:59;;;;;;;;;38.80;33.00;;;;;12.97;50.44;97997.31;6284913;27;96297;-62
2022/12/22 14:38:19;;;;;;;;;28.60;26.60;;;;;12.96;50.55;97999.22;6286030;27;97182;-60
2022/12/22 14:41:41;;;;;;;;;29.40;25.40;;;;;12.98;50.57;97996.25;6285969;27;96428;-61
2022/12/22 14:44:47;;;;;;;;;28.50;23.75;;;;;12.86;50.79;97982.06;6283676;27;96361;-61
2022/12/22 14:47:51;;;;;;;;;21.40;20.00;;;;;12.96;51.32;97993.78;6288762;27;96562;-60
2022/12/22 14:50:57;;;;;;;;;22.40;21.00;;;;;12.93;51.36;97997.03;6286122;27;96509;-60
2022/12/22 14:54:01;;;;;;;;;17.60;17.00;;;;;12.88;51.30;97996.16;6283758;27;97078;-61
2022/12/22 14:57:10;;;;;;;;;21.00;19.00;;;;;12.87;51.21;97994.53;6290607;27;96592;-62
2022/12/22 15:00:30;;;;;;;;;18.00;17.00;;;;;12.86;51.34;97991.00;6289007;27;97332;-61
2022/12/22 15:03:36;;;;;;;;;12.00;12.00;;;;;12.86;51.77;97987.47;6288705;27;96158;-60
2022/12/22 15:06:44;;;;;;;;;16.00;14.00;;;;;12.80;52.18;97983.94;6289199;27;96615;-60
2022/12/22 15:09:47;;;;;;;;;17.00;16.40;;;;;12.84;52.11;97981.53;6289392;27;96452;-62
2022/12/22 15:13:18;;;;;;;;;16.50;14.25;;;;;12.78;52.27;97983.38;6282277;27;97008;-61
2022/12/22 15:16:23;;;;;;;;;19.80;18.80;;;;;12.75;52.26;97986.59;6280525;27;96239;-60
2022/12/22 15:19:30;;;;;;;;;19.00;18.00;;;;;12.71;52.37;97988.16;6291011;27;96749;-61
2022/12/22 15:22:34;;;;;;;;;18.00;15.60;;;;;12.76;52.19;97985.50;6292309;27;96274;-60
2022/12/22 15:25:38;;;;;;;;;15.00;14.00;;;;;12.75;52.46;97977.66;6291311;27;96255;-61
2022/12/22 15:28:41;;;;;;;;;14.80;13.00;;;;;12.72;52.56;97987.09;6289894;27;96987;-61
2022/12/22 15:31:44;;;;;;;;;14.60;13.60;;;;;12.73;52.75;97983.31;6290337;27;96573;-61
2022/12/22 15:34:48;;;;;;;;;15.50;13.50;;;;;12.65;52.57;97956.78;6290052;27;96303;-61
2022/12/22 15:37:52;;;;;;;;;13.00;12.00;;;;;12.83;52.39;97975.31;6292875;27;96411;-60
2022/12/22 15:40:56;;;;;;;;;12.50;11.00;;;;;12.86;52.60;97973.97;6290524;27;96239;-60
2022/12/22 15:43:59;;;;;;;;;11.60;10.60;;;;;12.83;52.90;97977.19;6290730;27;96454;-61
2022/12/22 15:47:04;;;;;;;;;11.80;11.00;;;;;12.79;53.43;97970.66;6284123;27;96262;-61
2022/12/22 15:50:13;;;;;;;;;10.00;9.00;;;;;12.80;53.44;97975.00;6289674;27;96878;-61
2022/12/22 15:53:20;;;;;;;;;11.80;11.40;;;;;12.80;53.34;97962.31;6279944;27;96454;-61
2022/12/22 15:56:25;;;;;;;;;13.00;12.00;;;;;12.89;53.30;97960.75;6287515;27;96877;-62
2022/12/22 15:59:30;;;;;;;;;13.40;10.60;;;;;12.92;53.22;97954.00;6288597;27;96506;-61
2022/12/22 16:02:33;;;;;;;;;16.75;15.75;;;;;12.96;52.95;97961.31;6290663;27;96383;-61
2022/12/22 16:05:37;;;;;;;;;14.40;13.40;;;;;12.97;52.76;97954.03;6291260;27;96459;-60
2022/12/22 16:08:48;;;;;;;;;17.40;16.00;;;;;13.01;52.55;97955.13;6288992;27;96345;-61
2022/12/22 16:11:52;;;;;;;;;14.20;13.80;;;;;12.97;53.13;97951.31;6300956;27;96848;-64
2022/12/22 16:14:58;;;;;;;;;15.00;14.00;;;;;12.89;52.73;97935.59;6276350;27;96346;-62
2022/12/22 16:18:02;;;;;;;;;12.25;12.25;;;;;12.82;52.97;97924.97;6277218;27;97176;-60
2022/12/22 16:21:14;;;;;;;;;15.60;14.00;;;;;12.93;52.62;97942.94;6289460;27;96822;-60
2022/12/22 16:24:26;;;;;;;;;16.00;15.00;;;;;12.94;52.82;97941.84;6278637;27;96759;-60
2022/12/22 16:27:30;;;;;;;;;15.00;13.60;;;;;12.90;52.70;97943.41;6279313;27;96380;-60
2022/12/22 16:30:34;;;;;;;;;16.00;13.60;;;;;12.96;52.60;97950.50;6283349;27;97635;-61
2022/12/22 16:33:37;;;;;;;;;14.25;13.25;;;;;12.98;52.68;97956.50;6273064;27;96289;-61
2022/12/22 16:36:41;;;;;;;;;17.00;15.00;;;;;12.95;52.45;97953.50;6277425;27;96848;-62
2022/12/22 16:39:46;;;;;;;;;16.00;15.00;;;;;12.90;53.08;97948.84;6284573;27;96443;-60
2022/12/22 16:42:57;;;;;;;;;14.00;13.00;;;;;12.92;52.83;97949.41;6281103;27;96615;-63
2022/12/22 16:46:20;;;;;;;;;15.67;14.33;;;;;12.90;52.74;97953.47;6284577;27;97131;-60
2022/12/22 16:49:24;;;;;;;;;15.20;14.20;;;;;12.89;52.89;97951.81;6285917;27;96416;-62
2022/12/22 16:52:35;;;;;;;;;15.00;13.40;;;;;12.89;52.81;97952.63;6283812;27;96664;-61
2022/12/22 16:55:40;;;;;;;;;13.00;12.40;;;;;12.89;52.94;97949.13;6290469;27;96416;-61
2022/12/22 16:58:44;;;;;;;;;12.40;12.00;;;;;12.81;53.23;97950.38;6290283;27;97008;-61
2022/12/22 17:01:52;;;;;;;;;12.00;11.00;;;;;12.87;53.16;97959.38;6289219;27;96885;-61
2022/12/22 17:05:00;;;;;;;;;12.00;12.00;;;;;12.88;53.05;97959.13;6288867;27;96971;-62
2022/12/22 17:08:05;;;;;;;;;11.00;10.00;;;;;12.91;53.10;97964.00;6289017;27;96266;-60
2022/12/22 17:11:16;;;;;;;;;11.00;10.00;;;;;12.94;53.08;97966.19;6288801;27;96334;-60
2022/12/22 17:14:28;;;;;;;;;8.80;7.40;;;;;12.97;53.04;97959.44;6288652;27;96560;-61
2022/12/22 17:17:31;;;;;;;;;8.00;8.00;;;;;12.99;52.92;97958.13;6290007;27;97135;-61
2022/12/22 17:20:44;;;;;;;;;9.00;7.20;;;;;13.03;52.59;97959.22;6287126;27;96452;-64
2022/12/22 17:23:51;;;;;;;;;8.40;7.40;;;;;13.09;52.54;97951.97;6285416;27;97113;-62
2022/12/22 17:26:59;;;;;;;;;11.00;9.00;;;;;13.14;52.58;97962.03;6282265;27;98411;-61
2022/12/22 17:30:04;;;;;;;;;11.00;10.00;;;;;13.19;52.14;97956.66;6284159;27;96627;-61
2022/12/22 17:33:14;;;;;;;;;8.00;6.00;;;;;13.15;52.34;97961.75;6281948;27;96920;-63
2022/12/22 17:36:28;;;;;;;;;8.00;8.00;;;;;13.12;52.21;97958.75;6279413;27;96758;-62
2022/12/22 17:39:32;;;;;;;;;10.25;9.25;;;;;13.11;52.01;97951.69;6285027;27;97060;-61
2022/12/22 17:42:37;;;;;;;;;7.00;7.00;;;;;13.07;52.15;97947.88;6282805;27;96624;-61
2022/12/22 17:45:41;;;;;;;;;8.60;8.00;;;;;12.90;52.21;97948.84;6284722;27;96853;-62
2022/12/22 17:48:45;;;;;;;;;9.00;8.80;;;;;12.96;52.10;97958.63;6283227;27;96730;-61
2022/12/22 17:51:48;;;;;;;;;9.60;9.60;;;;;12.91;52.21;97960.47;6281769;27;96474;-62
2022/12/22 17:54:53;;;;;;;;;10.00;9.00;;;;;12.92;52.07;97957.53;6283261;27;96930;-61
2022/12/22 17:57:58;;;;;;;;;10.40;9.00;;;;;12.93;52.20;97952.94;6283462;27;96938;-60
2022/12/22 18:01:02;;;;;;;;;12.40;11.60;;;;;12.86;52.22;97953.13;6282058;27;97065;-61
2022/12/22 18:04:08;;;;;;;;;9.00;9.00;;;;;12.78;52.24;97944.69;6284151;27;96431;-61
2022/12/22 18:07:13;;;;;;;;;11.20;9.20;;;;;12.75;52.40;97946.03;6284591;27;96273;-62
2022/12/22 18:10:24;;;;;;;;;14.25;12.75;;;;;12.71;52.41;97944.06;6285745;27;96363;-61
2022/12/22 18:13:29;;;;;;;;;10.33;9.33;;;;;12.67;52.26;97941.09;6286482;27;96655;-61